Bloomington, California
Current Conditions -  °F | °C
As of 12:53 PM on Tuesday 27 Jan 2015 (Local Time) from KRAL Reporting Station
Clear Clear  
Wind Chill: 69°   Ceiling: Unl
Heat Index: 69°   Visibility: 10mi
Dew Point: 49°   Wind: 0mph
Humidity: 49%   Direction: NA
Pressure: 30.15"   Gusts: NA
Location:  34.07°N, 117.39°W
Report Text: KRAL 272053Z 00000KT 10SM CLR 21/09 A3015 RMK AO2 SLP197 T02060094 58021
Loading
Personal Weather Stations






























Interactive Weather Map New forecast layout! Learn more

10-Day Weather Forecast

Advertisements
Track Severe Weather on mobile